YLIS

Details ICAO YLIS (LSY)
Name Lismore
Region Australia
Timezone Australia/Sydney (UTC+11.0)
Plans Departing 8
Arriving 6
Stats Elevation 35 ft / 11 m (AMSL)
Location -28.830852° 153.258464°
Runways 1
Magnetic Variation 11.468° E
Sunrise 2017-12-13 18:44:01 UTC / 2017-12-14 05:44:01 Local
Sunset 2017-12-14 08:41:41 UTC / 2017-12-14 19:41:41 Local
Advertisement - Login to hide

Runways

ID Width Length Bearing (true) Bearing (mag) Surface Threshold Offset Overrun Length
15 98 ft / 30 m 5,421 ft / 1,652 m 157.30° 145.83° Asphalt 0 ft / 0 m 0 ft / 0 m
33 98 ft / 30 m 5,421 ft / 1,652 m 337.30° 325.83° Asphalt 0 ft / 0 m 0 ft / 0 m

Map

Weather


0- 5 10 15 20 25 30 35+ Temperature / ° C

Clouds and Precipitation
Forecast for 2017-12-13 18:00 UTC. Updated 2 minutes ago

Ground ~20,000 ft ~40,000 ft Winds

METAR

YLIS 131719Z AUTO 35005KT 0600 // BKN005 BKN008 16/16 Q1013

TAF

Not found

Frequencies

Unicom 119.60 MHz ACTIVATE LIGHTS ONLY MULT
Tower 120.30 MHz BRISBANE CNTR
Unicom 124.20 MHz LISMORE MULT
Warning: Do not use this data for real-world aviation or navigation. No guarantee of current accuracy is given.